الصفحة الرئيسية
METAR-TAF:

METAR-TAF

مطار :

هانوي, فيتنام

دائرة عرض: 21-01N, خط طول: 105-48E, ارتفاع: 6 متر

مراقبة الطقس الحالي

تاريخ ووقت الإصدار 20 دقيقة قبل الساعة 02:00UTC
ريح 9 عقدة من الشمال الشرقي, الاتجاه يتراوح بين الشمال و الشرق/الشمال الشرقي
درجة الحرارة 19°درجة مئوية
الرطوبة 49%
ضغط 1025 hPa
الرؤية 10 كم أو أكثر
الغيوم لا تقل 1500 م ولا وجود لمزنة ركامية السحاب الأسود

METAR: VVNB 010200Z 04009KT 350V060 CAVOK 19/08 Q1025 NOSIG

زمن: 09:20 (02:20 UTC)

توقعات

تاريخ ووقت الإصدار 3ساعات و 20 دقيقة قبل الساعة 23:00UTC
التوقعات صالحة من01 الساعة 00 UTC إلى 01 الساعة 24 UTC
ريح 7 عقدة من الشمال/الشمال الشرقي
الرؤية 10 كم أو أكثر
الغيوم لا تقل 1500 م ولا وجود لمزنة ركامية السحاب الأسود

TAF: VVNB 302300Z 0100/0124 02007KT CAVOK

أرصاد الطقس والتوقعات من أكثر من 4000 مطار (تقارير الطقس للمطار METAR والتنبؤ بالطقس بالمطارTAF).

المحطات المتاحة هي النقط الصفراء والحمراء على الخريطة.

حرك المؤشر فوق النقطة لمعرفة اسم المحطة.

ثم انقر لمعرفة أرصاد وتوقعات الطقس.

لتغيير الخارطة: اضغط على الأزرار الخضراء مع رمز الصليب الأسود للتكبير. على الزر الأخضر مع شرطة للتصغير، أو على الأسهم الخضراء للخرائط المجاورة.


METAR-TAF: